sensor_id;sensor_type;location;lat;lon;timestamp;P1;durP1;ratioP1;P2;durP2;ratioP2
9918;SDS011;4998;51.024;13.828;2022-11-20T00:00:17;13.57;;;10.00;;
9918;SDS011;4998;51.024;13.828;2022-11-20T00:02:44;13.23;;;9.97;;
9918;SDS011;4998;51.024;13.828;2022-11-20T00:05:11;14.43;;;9.20;;
9918;SDS011;4998;51.024;13.828;2022-11-20T00:07:40;13.40;;;9.17;;
9918;SDS011;4998;51.024;13.828;2022-11-20T00:10:07;13.03;;;9.43;;
9918;SDS011;4998;51.024;13.828;2022-11-20T00:12:34;13.80;;;8.80;;
9918;SDS011;4998;51.024;13.828;2022-11-20T00:15:01;12.87;;;9.67;;
9918;SDS011;4998;51.024;13.828;2022-11-20T00:17:29;12.87;;;9.07;;
9918;SDS011;4998;51.024;13.828;2022-11-20T00:19:56;17.87;;;10.27;;
9918;SDS011;4998;51.024;13.828;2022-11-20T00:22:23;11.33;;;8.90;;
9918;SDS011;4998;51.024;13.828;2022-11-20T00:24:51;19.10;;;9.40;;
9918;SDS011;4998;51.024;13.828;2022-11-20T00:27:18;15.63;;;9.57;;
9918;SDS011;4998;51.024;13.828;2022-11-20T00:29:45;14.33;;;9.03;;
9918;SDS011;4998;51.024;13.828;2022-11-20T00:32:12;14.37;;;9.00;;
9918;SDS011;4998;51.024;13.828;2022-11-20T00:34:39;16.23;;;9.07;;
9918;SDS011;4998;51.024;13.828;2022-11-20T00:37:06;12.23;;;8.93;;
9918;SDS011;4998;51.024;13.828;2022-11-20T00:39:33;12.70;;;8.90;;
9918;SDS011;4998;51.024;13.828;2022-11-20T00:42:02;14.17;;;9.23;;
9918;SDS011;4998;51.024;13.828;2022-11-20T00:44:29;12.60;;;8.27;;
9918;SDS011;4998;51.024;13.828;2022-11-20T00:46:56;13.17;;;9.40;;
9918;SDS011;4998;51.024;13.828;2022-11-20T00:49:23;15.50;;;9.70;;
9918;SDS011;4998;51.024;13.828;2022-11-20T00:51:50;11.90;;;8.60;;
9918;SDS011;4998;51.024;13.828;2022-11-20T00:54:17;12.57;;;9.03;;
9918;SDS011;4998;51.024;13.828;2022-11-20T00:56:44;14.20;;;9.57;;
9918;SDS011;4998;51.024;13.828;2022-11-20T00:59:12;14.73;;;9.20;;
9918;SDS011;4998;51.024;13.828;2022-11-20T01:01:39;14.63;;;9.60;;
9918;SDS011;4998;51.024;13.828;2022-11-20T01:04:06;13.83;;;9.63;;
9918;SDS011;4998;51.024;13.828;2022-11-20T01:06:34;14.07;;;10.03;;
9918;SDS011;4998;51.024;13.828;2022-11-20T01:09:03;12.90;;;9.13;;
9918;SDS011;4998;51.024;13.828;2022-11-20T01:11:32;13.00;;;9.33;;
9918;SDS011;4998;51.024;13.828;2022-11-20T01:14:01;11.30;;;9.17;;
9918;SDS011;4998;51.024;13.828;2022-11-20T01:16:31;11.53;;;8.60;;
9918;SDS011;4998;51.024;13.828;2022-11-20T01:19:00;14.60;;;9.67;;
9918;SDS011;4998;51.024;13.828;2022-11-20T01:21:30;13.50;;;9.57;;
9918;SDS011;4998;51.024;13.828;2022-11-20T01:23:58;15.47;;;9.90;;
9918;SDS011;4998;51.024;13.828;2022-11-20T01:26:26;15.07;;;9.67;;
9918;SDS011;4998;51.024;13.828;2022-11-20T01:28:55;13.50;;;9.43;;
9918;SDS011;4998;51.024;13.828;2022-11-20T01:31:23;12.70;;;8.70;;
9918;SDS011;4998;51.024;13.828;2022-11-20T01:33:53;11.53;;;9.00;;
9918;SDS011;4998;51.024;13.828;2022-11-20T01:36:23;13.73;;;9.00;;
9918;SDS011;4998;51.024;13.828;2022-11-20T01:38:51;13.10;;;8.80;;
9918;SDS011;4998;51.024;13.828;2022-11-20T01:41:18;15.03;;;9.00;;
9918;SDS011;4998;51.024;13.828;2022-11-20T01:44:00;12.97;;;8.77;;
9918;SDS011;4998;51.024;13.828;2022-11-20T01:46:29;12.10;;;8.50;;
9918;SDS011;4998;51.024;13.828;2022-11-20T01:48:59;12.30;;;9.20;;
9918;SDS011;4998;51.024;13.828;2022-11-20T01:51:31;11.87;;;8.30;;
9918;SDS011;4998;51.024;13.828;2022-11-20T01:54:02;13.97;;;9.33;;
9918;SDS011;4998;51.024;13.828;2022-11-20T01:56:33;12.90;;;8.80;;
9918;SDS011;4998;51.024;13.828;2022-11-20T01:59:04;13.27;;;9.00;;
9918;SDS011;4998;51.024;13.828;2022-11-20T02:01:33;11.80;;;8.13;;
9918;SDS011;4998;51.024;13.828;2022-11-20T02:04:02;12.40;;;8.70;;
9918;SDS011;4998;51.024;13.828;2022-11-20T02:06:30;12.10;;;8.67;;
9918;SDS011;4998;51.024;13.828;2022-11-20T02:09:01;12.77;;;8.33;;
9918;SDS011;4998;51.024;13.828;2022-11-20T02:11:29;13.00;;;8.60;;
9918;SDS011;4998;51.024;13.828;2022-11-20T02:13:56;12.17;;;8.30;;
9918;SDS011;4998;51.024;13.828;2022-11-20T02:16:23;13.80;;;8.50;;
9918;SDS011;4998;51.024;13.828;2022-11-20T02:18:53;10.20;;;7.43;;
9918;SDS011;4998;51.024;13.828;2022-11-20T02:21:24;11.60;;;7.73;;
9918;SDS011;4998;51.024;13.828;2022-11-20T02:24:07;10.27;;;7.77;;
9918;SDS011;4998;51.024;13.828;2022-11-20T02:26:41;9.83;;;7.93;;
9918;SDS011;4998;51.024;13.828;2022-11-20T02:29:12;10.20;;;7.63;;
9918;SDS011;4998;51.024;13.828;2022-11-20T02:31:42;9.33;;;7.27;;
9918;SDS011;4998;51.024;13.828;2022-11-20T02:34:10;10.33;;;7.70;;
9918;SDS011;4998;51.024;13.828;2022-11-20T02:36:38;13.13;;;8.40;;
9918;SDS011;4998;51.024;13.828;2022-11-20T02:39:09;12.70;;;8.07;;
9918;SDS011;4998;51.024;13.828;2022-11-20T02:41:41;11.63;;;7.80;;
9918;SDS011;4998;51.024;13.828;2022-11-20T02:44:09;11.30;;;8.20;;
9918;SDS011;4998;51.024;13.828;2022-11-20T02:46:36;10.50;;;7.10;;
9918;SDS011;4998;51.024;13.828;2022-11-20T02:49:03;9.23;;;6.93;;
9918;SDS011;4998;51.024;13.828;2022-11-20T02:51:30;9.40;;;6.80;;
9918;SDS011;4998;51.024;13.828;2022-11-20T02:53:58;8.33;;;6.93;;
9918;SDS011;4998;51.024;13.828;2022-11-20T02:56:26;7.80;;;6.37;;
9918;SDS011;4998;51.024;13.828;2022-11-20T02:58:54;9.97;;;6.67;;
9918;SDS011;4998;51.024;13.828;2022-11-20T03:01:21;9.43;;;6.30;;
9918;SDS011;4998;51.024;13.828;2022-11-20T03:03:48;10.10;;;6.90;;
9918;SDS011;4998;51.024;13.828;2022-11-20T03:06:15;7.00;;;5.90;;
9918;SDS011;4998;51.024;13.828;2022-11-20T03:08:42;9.37;;;6.50;;
9918;SDS011;4998;51.024;13.828;2022-11-20T03:11:10;6.13;;;5.50;;
9918;SDS011;4998;51.024;13.828;2022-11-20T03:13:38;8.83;;;6.40;;
9918;SDS011;4998;51.024;13.828;2022-11-20T03:16:06;8.37;;;6.70;;
9918;SDS011;4998;51.024;13.828;2022-11-20T03:18:34;9.30;;;6.70;;
9918;SDS011;4998;51.024;13.828;2022-11-20T03:21:01;8.17;;;6.60;;
9918;SDS011;4998;51.024;13.828;2022-11-20T03:23:29;9.57;;;7.43;;
9918;SDS011;4998;51.024;13.828;2022-11-20T03:26:06;9.47;;;6.70;;
9918;SDS011;4998;51.024;13.828;2022-11-20T03:28:34;9.83;;;7.40;;
9918;SDS011;4998;51.024;13.828;2022-11-20T03:31:06;14.07;;;7.90;;
9918;SDS011;4998;51.024;13.828;2022-11-20T03:33:37;12.50;;;8.60;;
9918;SDS011;4998;51.024;13.828;2022-11-20T03:36:06;10.33;;;8.00;;
9918;SDS011;4998;51.024;13.828;2022-11-20T03:38:34;10.03;;;8.10;;
9918;SDS011;4998;51.024;13.828;2022-11-20T03:41:02;10.80;;;8.20;;
9918;SDS011;4998;51.024;13.828;2022-11-20T03:43:30;12.37;;;7.77;;
9918;SDS011;4998;51.024;13.828;2022-11-20T03:45:58;9.97;;;7.80;;
9918;SDS011;4998;51.024;13.828;2022-11-20T03:48:26;12.13;;;8.77;;
9918;SDS011;4998;51.024;13.828;2022-11-20T03:51:05;11.30;;;8.00;;
9918;SDS011;4998;51.024;13.828;2022-11-20T03:53:34;11.87;;;8.13;;
9918;SDS011;4998;51.024;13.828;2022-11-20T03:56:01;11.50;;;8.10;;
9918;SDS011;4998;51.024;13.828;2022-11-20T03:58:28;10.37;;;8.20;;
9918;SDS011;4998;51.024;13.828;2022-11-20T04:00:55;9.10;;;6.70;;
9918;SDS011;4998;51.024;13.828;2022-11-20T04:03:22;9.40;;;6.10;;
9918;SDS011;4998;51.024;13.828;2022-11-20T04:05:50;10.50;;;6.87;;
9918;SDS011;4998;51.024;13.828;2022-11-20T04:08:17;7.33;;;6.10;;
9918;SDS011;4998;51.024;13.828;2022-11-20T04:10:44;8.07;;;6.30;;
9918;SDS011;4998;51.024;13.828;2022-11-20T04:13:11;8.60;;;6.17;;
9918;SDS011;4998;51.024;13.828;2022-11-20T04:15:38;9.20;;;6.27;;
9918;SDS011;4998;51.024;13.828;2022-11-20T04:18:05;8.27;;;6.13;;
9918;SDS011;4998;51.024;13.828;2022-11-20T04:20:32;7.17;;;6.00;;
9918;SDS011;4998;51.024;13.828;2022-11-20T04:23:01;12.60;;;7.40;;
9918;SDS011;4998;51.024;13.828;2022-11-20T04:25:28;7.77;;;5.80;;
9918;SDS011;4998;51.024;13.828;2022-11-20T04:27:55;10.07;;;6.07;;
9918;SDS011;4998;51.024;13.828;2022-11-20T04:30:22;10.37;;;6.70;;
9918;SDS011;4998;51.024;13.828;2022-11-20T04:32:49;7.37;;;6.33;;
9918;SDS011;4998;51.024;13.828;2022-11-20T04:35:16;8.07;;;6.20;;
9918;SDS011;4998;51.024;13.828;2022-11-20T04:37:42;9.57;;;6.60;;
9918;SDS011;4998;51.024;13.828;2022-11-20T04:42:40;8.93;;;6.57;;
9918;SDS011;4998;51.024;13.828;2022-11-20T04:45:07;7.60;;;6.33;;
9918;SDS011;4998;51.024;13.828;2022-11-20T04:47:34;8.10;;;6.37;;
9918;SDS011;4998;51.024;13.828;2022-11-20T04:50:01;6.60;;;5.53;;
9918;SDS011;4998;51.024;13.828;2022-11-20T04:52:29;7.57;;;6.23;;
9918;SDS011;4998;51.024;13.828;2022-11-20T04:54:56;7.17;;;5.73;;
9918;SDS011;4998;51.024;13.828;2022-11-20T04:57:24;9.30;;;6.40;;
9918;SDS011;4998;51.024;13.828;2022-11-20T04:59:51;9.13;;;6.30;;
9918;SDS011;4998;51.024;13.828;2022-11-20T05:02:18;9.63;;;7.13;;
9918;SDS011;4998;51.024;13.828;2022-11-20T05:04:45;11.50;;;7.10;;
9918;SDS011;4998;51.024;13.828;2022-11-20T05:07:12;8.30;;;6.60;;
9918;SDS011;4998;51.024;13.828;2022-11-20T05:09:39;11.60;;;7.53;;
9918;SDS011;4998;51.024;13.828;2022-11-20T05:12:06;10.93;;;7.23;;
9918;SDS011;4998;51.024;13.828;2022-11-20T05:14:35;9.70;;;6.83;;
9918;SDS011;4998;51.024;13.828;2022-11-20T05:17:02;7.93;;;6.50;;
9918;SDS011;4998;51.024;13.828;2022-11-20T05:19:29;12.00;;;7.93;;
9918;SDS011;4998;51.024;13.828;2022-11-20T05:21:56;11.10;;;7.87;;
9918;SDS011;4998;51.024;13.828;2022-11-20T05:24:23;12.47;;;8.50;;
9918;SDS011;4998;51.024;13.828;2022-11-20T05:26:50;10.53;;;7.73;;
9918;SDS011;4998;51.024;13.828;2022-11-20T05:29:17;11.17;;;8.10;;
9918;SDS011;4998;51.024;13.828;2022-11-20T05:31:45;10.47;;;7.50;;
9918;SDS011;4998;51.024;13.828;2022-11-20T05:34:12;11.37;;;7.87;;
9918;SDS011;4998;51.024;13.828;2022-11-20T05:36:39;12.70;;;9.00;;
9918;SDS011;4998;51.024;13.828;2022-11-20T05:39:06;19.23;;;8.73;;
9918;SDS011;4998;51.024;13.828;2022-11-20T05:41:33;12.53;;;7.60;;
9918;SDS011;4998;51.024;13.828;2022-11-20T05:44:00;12.20;;;7.87;;
9918;SDS011;4998;51.024;13.828;2022-11-20T05:46:27;10.20;;;7.67;;
9918;SDS011;4998;51.024;13.828;2022-11-20T05:48:56;11.40;;;7.47;;
9918;SDS011;4998;51.024;13.828;2022-11-20T05:51:23;12.50;;;7.87;;
9918;SDS011;4998;51.024;13.828;2022-11-20T05:53:51;9.93;;;7.17;;
9918;SDS011;4998;51.024;13.828;2022-11-20T05:56:18;10.97;;;7.60;;
9918;SDS011;4998;51.024;13.828;2022-11-20T05:58:47;10.93;;;7.27;;
9918;SDS011;4998;51.024;13.828;2022-11-20T06:01:15;10.07;;;7.93;;
9918;SDS011;4998;51.024;13.828;2022-11-20T06:03:44;11.20;;;7.63;;
9918;SDS011;4998;51.024;13.828;2022-11-20T06:06:14;10.07;;;7.67;;
9918;SDS011;4998;51.024;13.828;2022-11-20T06:08:41;10.30;;;7.63;;
9918;SDS011;4998;51.024;13.828;2022-11-20T06:11:09;11.37;;;6.97;;
9918;SDS011;4998;51.024;13.828;2022-11-20T06:13:38;10.40;;;6.50;;
9918;SDS011;4998;51.024;13.828;2022-11-20T06:16:05;12.23;;;7.50;;
9918;SDS011;4998;51.024;13.828;2022-11-20T06:18:32;8.30;;;6.80;;
9918;SDS011;4998;51.024;13.828;2022-11-20T06:21:00;8.60;;;6.20;;
9918;SDS011;4998;51.024;13.828;2022-11-20T06:23:30;9.00;;;6.30;;
9918;SDS011;4998;51.024;13.828;2022-11-20T06:25:58;11.93;;;7.10;;
9918;SDS011;4998;51.024;13.828;2022-11-20T06:28:28;10.67;;;7.20;;
9918;SDS011;4998;51.024;13.828;2022-11-20T06:30:55;8.87;;;6.67;;
9918;SDS011;4998;51.024;13.828;2022-11-20T06:33:22;8.50;;;7.13;;
9918;SDS011;4998;51.024;13.828;2022-11-20T06:35:49;8.83;;;6.40;;
9918;SDS011;4998;51.024;13.828;2022-11-20T06:38:16;9.57;;;6.60;;
9918;SDS011;4998;51.024;13.828;2022-11-20T06:40:44;10.40;;;7.63;;
9918;SDS011;4998;51.024;13.828;2022-11-20T06:43:11;10.90;;;7.80;;
9918;SDS011;4998;51.024;13.828;2022-11-20T06:45:38;10.00;;;7.30;;
9918;SDS011;4998;51.024;13.828;2022-11-20T06:48:05;12.53;;;7.17;;
9918;SDS011;4998;51.024;13.828;2022-11-20T06:50:32;10.53;;;7.50;;
9918;SDS011;4998;51.024;13.828;2022-11-20T06:53:02;12.77;;;7.70;;
9918;SDS011;4998;51.024;13.828;2022-11-20T06:55:31;10.00;;;7.40;;
9918;SDS011;4998;51.024;13.828;2022-11-20T06:57:59;11.83;;;8.10;;
9918;SDS011;4998;51.024;13.828;2022-11-20T07:00:26;10.00;;;7.10;;
9918;SDS011;4998;51.024;13.828;2022-11-20T07:02:53;11.63;;;7.80;;
9918;SDS011;4998;51.024;13.828;2022-11-20T07:05:20;10.53;;;8.30;;
9918;SDS011;4998;51.024;13.828;2022-11-20T07:07:48;14.97;;;8.40;;
9918;SDS011;4998;51.024;13.828;2022-11-20T07:10:15;13.40;;;8.87;;
9918;SDS011;4998;51.024;13.828;2022-11-20T07:12:42;12.53;;;7.97;;
9918;SDS011;4998;51.024;13.828;2022-11-20T07:15:10;11.07;;;7.90;;
9918;SDS011;4998;51.024;13.828;2022-11-20T07:17:37;12.00;;;8.60;;
9918;SDS011;4998;51.024;13.828;2022-11-20T07:20:04;12.50;;;8.73;;
9918;SDS011;4998;51.024;13.828;2022-11-20T07:22:32;14.13;;;9.10;;
9918;SDS011;4998;51.024;13.828;2022-11-20T07:24:59;12.00;;;8.47;;
9918;SDS011;4998;51.024;13.828;2022-11-20T07:27:26;12.87;;;9.40;;
9918;SDS011;4998;51.024;13.828;2022-11-20T07:29:53;12.53;;;9.00;;
9918;SDS011;4998;51.024;13.828;2022-11-20T07:32:22;13.27;;;9.47;;
9918;SDS011;4998;51.024;13.828;2022-11-20T07:34:49;18.23;;;9.43;;
9918;SDS011;4998;51.024;13.828;2022-11-20T07:37:17;13.70;;;9.87;;
9918;SDS011;4998;51.024;13.828;2022-11-20T07:39:44;13.20;;;9.43;;
9918;SDS011;4998;51.024;13.828;2022-11-20T07:42:11;13.57;;;9.50;;
9918;SDS011;4998;51.024;13.828;2022-11-20T07:44:38;14.43;;;10.23;;
9918;SDS011;4998;51.024;13.828;2022-11-20T07:47:05;14.37;;;10.20;;
9918;SDS011;4998;51.024;13.828;2022-11-20T07:49:34;18.07;;;11.33;;
9918;SDS011;4998;51.024;13.828;2022-11-20T07:52:01;17.47;;;11.23;;
9918;SDS011;4998;51.024;13.828;2022-11-20T07:54:28;15.40;;;10.60;;
9918;SDS011;4998;51.024;13.828;2022-11-20T07:56:55;14.43;;;10.30;;
9918;SDS011;4998;51.024;13.828;2022-11-20T07:59:22;15.00;;;10.40;;
9918;SDS011;4998;51.024;13.828;2022-11-20T08:01:49;13.90;;;10.23;;
9918;SDS011;4998;51.024;13.828;2022-11-20T08:04:16;22.20;;;11.07;;
9918;SDS011;4998;51.024;13.828;2022-11-20T08:06:45;16.23;;;10.73;;
9918;SDS011;4998;51.024;13.828;2022-11-20T08:09:12;15.53;;;10.70;;
9918;SDS011;4998;51.024;13.828;2022-11-20T08:11:39;17.73;;;10.40;;
9918;SDS011;4998;51.024;13.828;2022-11-20T08:14:23;15.47;;;10.87;;
9918;SDS011;4998;51.024;13.828;2022-11-20T08:16:52;16.30;;;11.50;;
9918;SDS011;4998;51.024;13.828;2022-11-20T08:19:19;15.10;;;10.73;;
9918;SDS011;4998;51.024;13.828;2022-11-20T08:21:48;19.70;;;12.60;;
9918;SDS011;4998;51.024;13.828;2022-11-20T08:24:15;17.20;;;11.40;;
9918;SDS011;4998;51.024;13.828;2022-11-20T08:26:42;20.77;;;12.27;;
9918;SDS011;4998;51.024;13.828;2022-11-20T08:29:09;18.03;;;11.40;;
9918;SDS011;4998;51.024;13.828;2022-11-20T08:31:36;16.77;;;11.37;;
9918;SDS011;4998;51.024;13.828;2022-11-20T08:34:03;20.07;;;13.37;;
9918;SDS011;4998;51.024;13.828;2022-11-20T08:36:32;19.10;;;12.00;;
9918;SDS011;4998;51.024;13.828;2022-11-20T08:39:02;20.07;;;12.57;;
9918;SDS011;4998;51.024;13.828;2022-11-20T08:41:29;17.57;;;12.40;;
9918;SDS011;4998;51.024;13.828;2022-11-20T08:43:58;18.30;;;12.40;;
9918;SDS011;4998;51.024;13.828;2022-11-20T08:46:27;19.80;;;12.20;;
9918;SDS011;4998;51.024;13.828;2022-11-20T08:48:58;19.63;;;11.87;;
9918;SDS011;4998;51.024;13.828;2022-11-20T08:51:25;18.60;;;12.80;;
9918;SDS011;4998;51.024;13.828;2022-11-20T08:53:52;19.17;;;12.10;;
9918;SDS011;4998;51.024;13.828;2022-11-20T08:56:21;21.10;;;13.13;;
9918;SDS011;4998;51.024;13.828;2022-11-20T08:58:49;18.33;;;11.70;;
9918;SDS011;4998;51.024;13.828;2022-11-20T09:01:16;17.37;;;11.80;;
9918;SDS011;4998;51.024;13.828;2022-11-20T09:03:43;19.30;;;12.27;;
9918;SDS011;4998;51.024;13.828;2022-11-20T09:06:10;18.80;;;12.30;;
9918;SDS011;4998;51.024;13.828;2022-11-20T09:08:37;16.13;;;11.83;;
9918;SDS011;4998;51.024;13.828;2022-11-20T09:11:05;18.03;;;12.67;;
9918;SDS011;4998;51.024;13.828;2022-11-20T09:13:34;18.57;;;12.40;;
9918;SDS011;4998;51.024;13.828;2022-11-20T09:16:02;17.57;;;11.83;;
9918;SDS011;4998;51.024;13.828;2022-11-20T09:18:31;16.80;;;11.53;;
9918;SDS011;4998;51.024;13.828;2022-11-20T09:21:02;18.70;;;12.20;;
9918;SDS011;4998;51.024;13.828;2022-11-20T09:23:31;13.10;;;9.83;;
9918;SDS011;4998;51.024;13.828;2022-11-20T09:26:01;15.53;;;10.80;;
9918;SDS011;4998;51.024;13.828;2022-11-20T09:28:29;13.67;;;9.53;;
9918;SDS011;4998;51.024;13.828;2022-11-20T09:30:57;15.70;;;9.97;;
9918;SDS011;4998;51.024;13.828;2022-11-20T09:33:25;11.50;;;8.40;;
9918;SDS011;4998;51.024;13.828;2022-11-20T09:35:52;13.97;;;9.77;;
9918;SDS011;4998;51.024;13.828;2022-11-20T09:38:19;13.77;;;9.43;;
9918;SDS011;4998;51.024;13.828;2022-11-20T09:40:47;12.80;;;9.53;;
9918;SDS011;4998;51.024;13.828;2022-11-20T09:43:19;13.50;;;9.33;;
9918;SDS011;4998;51.024;13.828;2022-11-20T09:45:55;14.60;;;9.70;;
9918;SDS011;4998;51.024;13.828;2022-11-20T09:51:23;13.23;;;9.20;;
9918;SDS011;4998;51.024;13.828;2022-11-20T09:54:00;12.50;;;8.77;;
9918;SDS011;4998;51.024;13.828;2022-11-20T09:56:37;13.83;;;8.47;;
9918;SDS011;4998;51.024;13.828;2022-11-20T09:59:08;12.30;;;9.03;;
9918;SDS011;4998;51.024;13.828;2022-11-20T10:01:48;11.90;;;8.60;;
9918;SDS011;4998;51.024;13.828;2022-11-20T10:04:17;12.80;;;9.43;;
9918;SDS011;4998;51.024;13.828;2022-11-20T10:06:47;14.07;;;9.47;;
9918;SDS011;4998;51.024;13.828;2022-11-20T10:09:21;15.67;;;10.10;;
9918;SDS011;4998;51.024;13.828;2022-11-20T10:11:56;11.03;;;8.23;;
9918;SDS011;4998;51.024;13.828;2022-11-20T10:14:34;12.77;;;9.03;;
9918;SDS011;4998;51.024;13.828;2022-11-20T10:17:13;10.83;;;8.87;;
9918;SDS011;4998;51.024;13.828;2022-11-20T10:19:54;12.23;;;8.40;;
9918;SDS011;4998;51.024;13.828;2022-11-20T10:22:37;11.03;;;7.83;;
9918;SDS011;4998;51.024;13.828;2022-11-20T10:25:13;9.77;;;7.50;;
9918;SDS011;4998;51.024;13.828;2022-11-20T10:27:56;12.70;;;7.90;;
9918;SDS011;4998;51.024;13.828;2022-11-20T10:30:45;9.57;;;7.30;;
9918;SDS011;4998;51.024;13.828;2022-11-20T10:33:19;11.43;;;7.30;;
9918;SDS011;4998;51.024;13.828;2022-11-20T10:35:49;11.43;;;7.73;;
9918;SDS011;4998;51.024;13.828;2022-11-20T10:38:23;9.80;;;7.00;;
9918;SDS011;4998;51.024;13.828;2022-11-20T10:40:56;11.00;;;7.50;;
9918;SDS011;4998;51.024;13.828;2022-11-20T10:43:45;10.13;;;6.97;;
9918;SDS011;4998;51.024;13.828;2022-11-20T10:46:15;11.30;;;7.13;;
9918;SDS011;4998;51.024;13.828;2022-11-20T10:48:46;9.40;;;6.70;;
9918;SDS011;4998;51.024;13.828;2022-11-20T10:51:29;9.37;;;7.07;;
9918;SDS011;4998;51.024;13.828;2022-11-20T10:54:04;8.30;;;6.50;;
9918;SDS011;4998;51.024;13.828;2022-11-20T10:56:45;7.90;;;6.03;;
9918;SDS011;4998;51.024;13.828;2022-11-20T10:59:28;8.83;;;6.47;;
9918;SDS011;4998;51.024;13.828;2022-11-20T11:02:19;9.20;;;6.50;;
9918;SDS011;4998;51.024;13.828;2022-11-20T11:04:49;7.70;;;5.93;;
9918;SDS011;4998;51.024;13.828;2022-11-20T11:07:19;8.70;;;6.03;;
9918;SDS011;4998;51.024;13.828;2022-11-20T11:09:49;6.80;;;5.80;;
9918;SDS011;4998;51.024;13.828;2022-11-20T11:12:18;8.50;;;6.20;;
9918;SDS011;4998;51.024;13.828;2022-11-20T11:14:47;8.10;;;5.93;;
9918;SDS011;4998;51.024;13.828;2022-11-20T11:20:16;9.73;;;5.80;;
9918;SDS011;4998;51.024;13.828;2022-11-20T11:22:45;6.07;;;5.07;;
9918;SDS011;4998;51.024;13.828;2022-11-20T11:25:21;11.77;;;8.40;;
9918;SDS011;4998;51.024;13.828;2022-11-20T11:27:51;10.83;;;8.17;;
9918;SDS011;4998;51.024;13.828;2022-11-20T11:30:20;9.83;;;7.50;;
9918;SDS011;4998;51.024;13.828;2022-11-20T11:32:48;8.97;;;6.47;;
9918;SDS011;4998;51.024;13.828;2022-11-20T11:35:21;6.97;;;5.77;;
9918;SDS011;4998;51.024;13.828;2022-11-20T11:37:50;8.40;;;6.03;;
9918;SDS011;4998;51.024;13.828;2022-11-20T11:40:19;10.03;;;6.57;;
9918;SDS011;4998;51.024;13.828;2022-11-20T11:42:50;6.43;;;5.10;;
9918;SDS011;4998;51.024;13.828;2022-11-20T11:45:21;7.27;;;5.40;;
9918;SDS011;4998;51.024;13.828;2022-11-20T11:47:48;7.33;;;5.97;;
9918;SDS011;4998;51.024;13.828;2022-11-20T11:50:19;9.63;;;7.23;;
9918;SDS011;4998;51.024;13.828;2022-11-20T11:52:51;10.30;;;7.27;;
9918;SDS011;4998;51.024;13.828;2022-11-20T11:55:26;9.60;;;7.30;;
9918;SDS011;4998;51.024;13.828;2022-11-20T11:57:59;9.57;;;6.93;;
9918;SDS011;4998;51.024;13.828;2022-11-20T12:00:49;7.87;;;5.30;;
9918;SDS011;4998;51.024;13.828;2022-11-20T12:03:22;7.90;;;5.93;;
9918;SDS011;4998;51.024;13.828;2022-11-20T12:05:55;6.20;;;5.40;;
9918;SDS011;4998;51.024;13.828;2022-11-20T12:08:26;6.30;;;4.80;;
9918;SDS011;4998;51.024;13.828;2022-11-20T12:10:59;5.20;;;4.63;;
9918;SDS011;4998;51.024;13.828;2022-11-20T12:13:39;22.37;;;14.33;;
9918;SDS011;4998;51.024;13.828;2022-11-20T12:16:12;40.40;;;26.00;;
9918;SDS011;4998;51.024;13.828;2022-11-20T12:18:41;21.73;;;14.90;;
9918;SDS011;4998;51.024;13.828;2022-11-20T12:21:16;14.97;;;9.90;;
9918;SDS011;4998;51.024;13.828;2022-11-20T12:23:53;8.13;;;6.87;;
9918;SDS011;4998;51.024;13.828;2022-11-20T12:26:40;8.23;;;6.00;;
9918;SDS011;4998;51.024;13.828;2022-11-20T12:29:25;6.53;;;4.87;;
9918;SDS011;4998;51.024;13.828;2022-11-20T12:32:10;6.50;;;5.37;;
9918;SDS011;4998;51.024;13.828;2022-11-20T12:34:53;6.07;;;4.87;;
9918;SDS011;4998;51.024;13.828;2022-11-20T12:37:33;5.90;;;5.10;;
9918;SDS011;4998;51.024;13.828;2022-11-20T12:40:20;6.10;;;4.77;;
9918;SDS011;4998;51.024;13.828;2022-11-20T12:42:57;5.90;;;5.20;;
9918;SDS011;4998;51.024;13.828;2022-11-20T12:48:54;6.10;;;4.80;;
9918;SDS011;4998;51.024;13.828;2022-11-20T12:51:41;8.57;;;6.30;;
9918;SDS011;4998;51.024;13.828;2022-11-20T12:54:42;10.90;;;6.10;;
9918;SDS011;4998;51.024;13.828;2022-11-20T12:57:22;6.63;;;5.47;;
9918;SDS011;4998;51.024;13.828;2022-11-20T12:59:58;8.50;;;6.23;;
9918;SDS011;4998;51.024;13.828;2022-11-20T13:02:36;7.43;;;5.67;;
9918;SDS011;4998;51.024;13.828;2022-11-20T13:05:27;7.67;;;5.93;;
9918;SDS011;4998;51.024;13.828;2022-11-20T13:08:00;6.30;;;5.60;;
9918;SDS011;4998;51.024;13.828;2022-11-20T13:10:33;7.60;;;6.70;;
9918;SDS011;4998;51.024;13.828;2022-11-20T13:13:05;6.77;;;5.70;;
9918;SDS011;4998;51.024;13.828;2022-11-20T13:15:44;21.27;;;13.67;;
9918;SDS011;4998;51.024;13.828;2022-11-20T13:18:19;28.63;;;18.70;;
9918;SDS011;4998;51.024;13.828;2022-11-20T13:20:47;13.93;;;9.20;;
9918;SDS011;4998;51.024;13.828;2022-11-20T13:23:22;11.50;;;8.10;;
9918;SDS011;4998;51.024;13.828;2022-11-20T13:26:01;8.97;;;6.80;;
9918;SDS011;4998;51.024;13.828;2022-11-20T13:28:30;9.43;;;6.60;;
9918;SDS011;4998;51.024;13.828;2022-11-20T13:30:57;6.90;;;5.57;;
9918;SDS011;4998;51.024;13.828;2022-11-20T13:33:29;7.83;;;6.37;;
9918;SDS011;4998;51.024;13.828;2022-11-20T13:35:59;6.40;;;5.20;;
9918;SDS011;4998;51.024;13.828;2022-11-20T13:38:27;6.90;;;6.20;;
9918;SDS011;4998;51.024;13.828;2022-11-20T13:41:07;8.00;;;6.43;;
9918;SDS011;4998;51.024;13.828;2022-11-20T13:43:48;7.43;;;6.40;;
9918;SDS011;4998;51.024;13.828;2022-11-20T13:46:15;10.33;;;7.50;;
9918;SDS011;4998;51.024;13.828;2022-11-20T13:48:49;7.10;;;6.00;;
9918;SDS011;4998;51.024;13.828;2022-11-20T13:51:26;9.10;;;7.20;;
9918;SDS011;4998;51.024;13.828;2022-11-20T13:57:08;7.70;;;5.77;;
9918;SDS011;4998;51.024;13.828;2022-11-20T13:59:49;6.40;;;5.43;;
9918;SDS011;4998;51.024;13.828;2022-11-20T14:02:23;8.40;;;6.20;;
9918;SDS011;4998;51.024;13.828;2022-11-20T14:04:54;7.80;;;5.80;;
9918;SDS011;4998;51.024;13.828;2022-11-20T14:07:26;7.70;;;5.97;;
9918;SDS011;4998;51.024;13.828;2022-11-20T14:10:00;7.10;;;5.87;;
9918;SDS011;4998;51.024;13.828;2022-11-20T14:12:30;5.73;;;4.87;;
9918;SDS011;4998;51.024;13.828;2022-11-20T14:14:58;6.30;;;5.17;;
9918;SDS011;4998;51.024;13.828;2022-11-20T14:17:29;6.23;;;5.30;;
9918;SDS011;4998;51.024;13.828;2022-11-20T14:19:58;6.03;;;4.90;;
9918;SDS011;4998;51.024;13.828;2022-11-20T14:22:28;6.50;;;5.33;;
9918;SDS011;4998;51.024;13.828;2022-11-20T14:25:02;5.10;;;4.60;;
9918;SDS011;4998;51.024;13.828;2022-11-20T14:27:34;5.77;;;4.67;;
9918;SDS011;4998;51.024;13.828;2022-11-20T14:30:04;4.90;;;4.33;;
9918;SDS011;4998;51.024;13.828;2022-11-20T14:32:32;5.87;;;4.80;;
9918;SDS011;4998;51.024;13.828;2022-11-20T14:35:03;4.97;;;4.47;;
9918;SDS011;4998;51.024;13.828;2022-11-20T14:37:36;5.50;;;4.90;;
9918;SDS011;4998;51.024;13.828;2022-11-20T14:40:14;5.73;;;5.13;;
9918;SDS011;4998;51.024;13.828;2022-11-20T14:42:54;5.50;;;4.70;;
9918;SDS011;4998;51.024;13.828;2022-11-20T14:45:21;4.73;;;4.30;;
9918;SDS011;4998;51.024;13.828;2022-11-20T14:47:48;5.10;;;4.47;;
9918;SDS011;4998;51.024;13.828;2022-11-20T14:50:19;5.70;;;5.00;;
9918;SDS011;4998;51.024;13.828;2022-11-20T14:52:52;6.37;;;5.07;;
9918;SDS011;4998;51.024;13.828;2022-11-20T14:55:30;4.80;;;4.20;;
9918;SDS011;4998;51.024;13.828;2022-11-20T14:58:02;7.13;;;5.40;;
9918;SDS011;4998;51.024;13.828;2022-11-20T15:00:30;5.93;;;5.27;;
9918;SDS011;4998;51.024;13.828;2022-11-20T15:02:58;7.07;;;5.60;;
9918;SDS011;4998;51.024;13.828;2022-11-20T15:05:26;6.53;;;5.87;;
9918;SDS011;4998;51.024;13.828;2022-11-20T15:08:11;8.10;;;6.10;;
9918;SDS011;4998;51.024;13.828;2022-11-20T15:10:43;6.17;;;5.57;;
9918;SDS011;4998;51.024;13.828;2022-11-20T15:13:14;6.60;;;5.80;;
9918;SDS011;4998;51.024;13.828;2022-11-20T15:15:47;6.63;;;5.60;;
9918;SDS011;4998;51.024;13.828;2022-11-20T15:18:16;6.80;;;5.97;;
9918;SDS011;4998;51.024;13.828;2022-11-20T15:20:44;8.30;;;5.87;;
9918;SDS011;4998;51.024;13.828;2022-11-20T15:23:13;8.73;;;7.10;;